createdAt,value
2023-01-31T05:00:33.688Z,1014.62
2023-01-31T05:01:33.577Z,1014.64
2023-01-31T05:02:33.843Z,1014.66
2023-01-31T05:03:33.541Z,1014.64
2023-01-31T05:04:33.530Z,1014.65
2023-01-31T05:05:36.110Z,1014.58
2023-01-31T05:06:33.512Z,1014.57
2023-01-31T05:07:33.508Z,1014.60
2023-01-31T05:08:33.494Z,1014.61
2023-01-31T05:09:33.486Z,1014.64
2023-01-31T05:10:33.471Z,1014.62
2023-01-31T05:11:38.478Z,1014.60
2023-01-31T05:12:33.453Z,1014.63
2023-01-31T05:13:33.444Z,1014.61
2023-01-31T05:14:33.421Z,1014.54
2023-01-31T05:15:33.431Z,1014.53
2023-01-31T05:16:33.477Z,1014.66
2023-01-31T05:17:33.408Z,1014.62
2023-01-31T05:18:33.378Z,1014.55
2023-01-31T05:19:33.421Z,1014.50
2023-01-31T05:20:33.356Z,1014.47
2023-01-31T05:21:33.341Z,1014.53
2023-01-31T05:22:38.416Z,1014.44
2023-01-31T05:23:33.323Z,1014.46
2023-01-31T05:24:33.311Z,1014.50
2023-01-31T05:25:33.297Z,1014.45
2023-01-31T05:26:33.320Z,1014.51
2023-01-31T05:27:33.648Z,1014.50
2023-01-31T05:28:33.317Z,1014.49
2023-01-31T05:29:33.603Z,1014.58
2023-01-31T05:30:33.372Z,1014.58
2023-01-31T05:31:33.286Z,1014.58
2023-01-31T05:32:33.245Z,1014.54
2023-01-31T05:33:38.241Z,1014.44
2023-01-31T05:34:33.305Z,1014.40
2023-01-31T05:35:33.194Z,1014.42
2023-01-31T05:36:33.177Z,1014.41
2023-01-31T05:37:33.170Z,1014.48
2023-01-31T05:38:33.560Z,1014.43
2023-01-31T05:39:33.159Z,1014.42
2023-01-31T05:40:33.146Z,1014.57
2023-01-31T05:41:33.120Z,1014.50
2023-01-31T05:42:33.137Z,1014.52
2023-01-31T05:43:34.038Z,1014.59
2023-01-31T05:44:38.113Z,1014.58
2023-01-31T05:45:33.264Z,1014.65
2023-01-31T05:46:33.079Z,1014.61
2023-01-31T05:47:33.048Z,1014.63
2023-01-31T05:48:33.603Z,1014.60
2023-01-31T05:49:33.056Z,1014.60
2023-01-31T05:50:33.025Z,1014.52
2023-01-31T05:51:33.378Z,1014.55
2023-01-31T05:52:33.438Z,1014.56
2023-01-31T05:53:33.032Z,1014.56
2023-01-31T05:54:33.506Z,1014.55
2023-01-31T05:55:38.011Z,1014.52
2023-01-31T05:56:33.432Z,1014.54
2023-01-31T05:57:33.401Z,1014.50
2023-01-31T05:58:33.281Z,1014.54
2023-01-31T05:59:33.340Z,1014.58
2023-01-31T06:00:33.379Z,1014.51
2023-01-31T06:01:33.442Z,1014.53
2023-01-31T06:02:33.282Z,1014.53
2023-01-31T06:03:33.319Z,1014.53
2023-01-31T06:04:33.499Z,1014.55
2023-01-31T06:05:33.228Z,1014.56
2023-01-31T06:06:37.857Z,1014.55
2023-01-31T06:07:33.199Z,1014.53
2023-01-31T06:08:33.342Z,1014.55
2023-01-31T06:09:33.274Z,1014.61
2023-01-31T06:10:33.258Z,1014.54
2023-01-31T06:11:33.281Z,1014.65
2023-01-31T06:12:33.141Z,1014.69
2023-01-31T06:13:33.142Z,1014.69
2023-01-31T06:14:33.166Z,1014.70
2023-01-31T06:15:33.170Z,1014.68
2023-01-31T06:16:33.211Z,1014.70
2023-01-31T06:17:37.743Z,1014.68
2023-01-31T06:18:33.083Z,1014.74
2023-01-31T06:19:33.149Z,1014.82
2023-01-31T06:20:33.058Z,1014.82
2023-01-31T06:21:33.033Z,1014.78
2023-01-31T06:22:32.967Z,1014.78
2023-01-31T06:23:32.963Z,1014.77
2023-01-31T06:24:33.101Z,1014.75
2023-01-31T06:25:33.006Z,1014.72
2023-01-31T06:26:33.297Z,1014.75
2023-01-31T06:27:33.087Z,1014.75
2023-01-31T06:28:37.614Z,1014.72
2023-01-31T06:29:32.943Z,1014.74
2023-01-31T06:30:33.223Z,1014.76
2023-01-31T06:31:33.181Z,1014.70
2023-01-31T06:32:32.980Z,1014.66
2023-01-31T06:33:45.080Z,1014.64
2023-01-31T06:34:33.589Z,1014.65
2023-01-31T06:35:32.836Z,1014.66
2023-01-31T06:36:32.984Z,1014.67
2023-01-31T06:37:32.948Z,1014.65
2023-01-31T06:38:32.824Z,1014.63
2023-01-31T06:39:37.524Z,1014.58
2023-01-31T06:40:32.818Z,1014.62
2023-01-31T06:41:32.998Z,1014.64
2023-01-31T06:42:32.829Z,1014.64
2023-01-31T06:43:32.868Z,1014.66
2023-01-31T06:44:32.822Z,1014.71
2023-01-31T06:45:33.036Z,1014.68
2023-01-31T06:46:32.953Z,1014.78
2023-01-31T06:47:32.693Z,1014.70
2023-01-31T06:48:32.728Z,1014.80
2023-01-31T06:49:32.701Z,1014.80
2023-01-31T06:50:37.369Z,1014.74
2023-01-31T06:51:32.709Z,1014.71
2023-01-31T06:52:32.363Z,1014.71
2023-01-31T06:53:32.764Z,1014.76
2023-01-31T06:54:32.634Z,1014.75
2023-01-31T06:55:32.635Z,1014.72
2023-01-31T06:56:32.671Z,1014.69
2023-01-31T06:57:32.640Z,1014.72
2023-01-31T06:58:32.606Z,1014.75
2023-01-31T06:59:32.780Z,1014.72
2023-01-31T07:00:32.768Z,1014.73
2023-01-31T07:01:37.355Z,1014.72
2023-01-31T07:02:32.581Z,1014.76
2023-01-31T07:03:32.621Z,1014.84
2023-01-31T07:04:32.742Z,1014.82
2023-01-31T07:05:32.342Z,1014.73
2023-01-31T07:06:32.623Z,1014.77
2023-01-31T07:07:32.463Z,1014.81
2023-01-31T07:08:34.863Z,1014.84
2023-01-31T07:09:32.321Z,1014.85
2023-01-31T07:10:32.556Z,1014.92
2023-01-31T07:11:32.608Z,1014.83
2023-01-31T07:12:37.159Z,1014.83
2023-01-31T07:13:32.545Z,1014.91
2023-01-31T07:14:32.518Z,1014.89
2023-01-31T07:15:32.576Z,1014.88
2023-01-31T07:16:32.400Z,1014.86
2023-01-31T07:17:32.457Z,1014.84
2023-01-31T07:18:32.463Z,1014.93
2023-01-31T07:19:32.133Z,1014.97
2023-01-31T07:20:32.354Z,1014.94
2023-01-31T07:21:32.467Z,1015.05
2023-01-31T07:22:32.349Z,1015.05
2023-01-31T07:23:37.034Z,1015.07
2023-01-31T07:24:32.396Z,1015.11
2023-01-31T07:25:32.485Z,1015.10
2023-01-31T07:26:32.441Z,1015.07
2023-01-31T07:27:32.335Z,1015.02
2023-01-31T07:28:32.320Z,1015.13
2023-01-31T07:29:32.468Z,1015.16
2023-01-31T07:30:32.128Z,1015.17
2023-01-31T07:31:32.430Z,1015.21
2023-01-31T07:32:32.315Z,1015.22
2023-01-31T07:33:32.273Z,1015.19
2023-01-31T07:34:36.875Z,1015.20
2023-01-31T07:35:32.250Z,1015.25
2023-01-31T07:36:32.383Z,1015.30
2023-01-31T07:37:32.243Z,1015.22
2023-01-31T07:38:32.357Z,1015.27
2023-01-31T07:39:32.317Z,1015.31
2023-01-31T07:40:32.106Z,1015.30
2023-01-31T07:41:32.132Z,1015.34
2023-01-31T07:42:32.202Z,1015.30
2023-01-31T07:43:32.105Z,1015.35
2023-01-31T07:44:32.137Z,1015.36
2023-01-31T07:45:37.200Z,1015.38
2023-01-31T07:46:32.242Z,1015.34
2023-01-31T07:47:32.024Z,1015.40
2023-01-31T07:48:31.910Z,1015.38
2023-01-31T07:49:32.052Z,1015.38
2023-01-31T07:50:32.196Z,1015.40
2023-01-31T07:51:32.065Z,1015.26
2023-01-31T07:52:32.065Z,1015.29
2023-01-31T07:53:31.906Z,1015.35
2023-01-31T07:54:32.110Z,1015.30
2023-01-31T07:55:32.080Z,1015.29
2023-01-31T07:56:36.685Z,1015.39
2023-01-31T07:57:32.093Z,1015.37
2023-01-31T07:58:32.006Z,1015.36
2023-01-31T07:59:31.967Z,1015.33
2023-01-31T08:00:32.063Z,1015.37
2023-01-31T08:01:31.899Z,1015.34
2023-01-31T08:02:31.914Z,1015.34
2023-01-31T08:03:31.885Z,1015.35
2023-01-31T08:04:32.103Z,1015.26
2023-01-31T08:05:31.878Z,1015.28
2023-01-31T08:06:31.892Z,1015.25
2023-01-31T08:07:36.513Z,1015.28
2023-01-31T08:08:31.535Z,1015.22
2023-01-31T08:09:32.138Z,1015.24
2023-01-31T08:10:31.843Z,1015.34
2023-01-31T08:11:31.906Z,1015.33
2023-01-31T08:12:31.809Z,1015.33
2023-01-31T08:13:31.728Z,1015.34
2023-01-31T08:14:31.412Z,1015.32
2023-01-31T08:15:31.819Z,1015.35
2023-01-31T08:16:31.796Z,1015.37
2023-01-31T08:17:31.806Z,1015.37
2023-01-31T08:18:36.381Z,1015.35
2023-01-31T08:19:31.931Z,1015.40
2023-01-31T08:20:31.738Z,1015.36
2023-01-31T08:21:31.657Z,1015.41
2023-01-31T08:22:31.748Z,1015.38
2023-01-31T08:23:31.964Z,1015.29
2023-01-31T08:24:31.760Z,1015.34
2023-01-31T08:25:32.021Z,1015.32
2023-01-31T08:26:31.759Z,1015.37
2023-01-31T08:27:31.588Z,1015.38
2023-01-31T08:28:31.858Z,1015.33
2023-01-31T08:29:36.255Z,1015.43
2023-01-31T08:30:31.666Z,1015.34
2023-01-31T08:31:31.630Z,1015.32
2023-01-31T08:32:31.697Z,1015.37
2023-01-31T08:33:31.599Z,1015.34
2023-01-31T08:34:31.556Z,1015.24
2023-01-31T08:35:31.569Z,1015.25
2023-01-31T08:36:31.552Z,1015.26
2023-01-31T08:37:31.596Z,1015.18
2023-01-31T08:38:31.618Z,1015.18
2023-01-31T08:39:31.136Z,1015.23
2023-01-31T08:40:36.136Z,1015.21
2023-01-31T08:41:31.437Z,1015.18
2023-01-31T08:42:31.517Z,1015.15
2023-01-31T08:43:37.285Z,1015.13
2023-01-31T08:44:32.666Z,1015.14
2023-01-31T08:45:31.478Z,1015.16
2023-01-31T08:46:31.461Z,1015.24
2023-01-31T08:47:31.538Z,1015.21
2023-01-31T08:48:31.366Z,1015.17
2023-01-31T08:49:31.524Z,1015.23
2023-01-31T08:50:31.442Z,1015.21
2023-01-31T08:51:36.032Z,1015.32
2023-01-31T08:52:31.342Z,1015.25
2023-01-31T08:53:31.064Z,1015.29
2023-01-31T08:54:31.385Z,1015.32
2023-01-31T08:55:31.270Z,1015.28
2023-01-31T08:56:31.323Z,1015.29
2023-01-31T08:57:31.343Z,1015.31
2023-01-31T08:58:31.202Z,1015.26
2023-01-31T08:59:31.363Z,1015.16
2023-01-31T09:00:31.339Z,1015.08
2023-01-31T09:01:31.508Z,1015.14
2023-01-31T09:02:35.997Z,1015.12
2023-01-31T09:03:31.143Z,1015.18
2023-01-31T09:04:31.246Z,1015.25
2023-01-31T09:05:31.219Z,1015.19
2023-01-31T09:06:31.182Z,1015.17
2023-01-31T09:07:31.279Z,1015.17
2023-01-31T09:08:31.244Z,1015.16
2023-01-31T09:09:30.781Z,1015.20
2023-01-31T09:10:31.409Z,1015.26
2023-01-31T09:11:31.142Z,1015.21
2023-01-31T09:12:31.199Z,1015.25
2023-01-31T09:13:35.770Z,1015.24
2023-01-31T09:14:31.136Z,1015.30
2023-01-31T09:15:31.261Z,1015.31
2023-01-31T09:16:31.356Z,1015.45
2023-01-31T09:17:31.025Z,1015.30
2023-01-31T09:18:31.054Z,1015.26
2023-01-31T09:19:31.101Z,1015.21
2023-01-31T09:20:30.971Z,1015.21
2023-01-31T09:21:31.145Z,1015.17
2023-01-31T09:22:31.181Z,1015.23
2023-01-31T09:23:30.893Z,1015.21
2023-01-31T09:24:35.639Z,1015.24
2023-01-31T09:25:44.325Z,1015.24
2023-01-31T09:26:32.181Z,1015.25
2023-01-31T09:27:30.995Z,1015.24
2023-01-31T09:28:30.985Z,1015.35
2023-01-31T09:29:30.906Z,1015.30
2023-01-31T09:30:30.996Z,1015.27
2023-01-31T09:31:31.200Z,1015.21
2023-01-31T09:32:30.876Z,1015.17
2023-01-31T09:33:30.998Z,1015.28
2023-01-31T09:34:30.842Z,1015.22
2023-01-31T09:35:35.528Z,1015.20
2023-01-31T09:36:30.526Z,1015.14
2023-01-31T09:37:30.827Z,1015.09
2023-01-31T09:38:31.040Z,1015.08
2023-01-31T09:39:30.820Z,1015.10
2023-01-31T09:40:30.864Z,1015.06
2023-01-31T09:41:30.851Z,1015.08
2023-01-31T09:42:30.863Z,1015.04
2023-01-31T09:43:30.897Z,1015.01
2023-01-31T09:44:30.744Z,1015.04
2023-01-31T09:45:30.824Z,1015.01
2023-01-31T09:46:35.442Z,1015.01
2023-01-31T09:47:30.909Z,1015.05
2023-01-31T09:48:30.715Z,1015.07
2023-01-31T09:49:30.848Z,1015.10
2023-01-31T09:50:30.706Z,1015.06
2023-01-31T09:51:30.785Z,1015.03
2023-01-31T09:52:30.807Z,1015.05
2023-01-31T09:53:30.425Z,1015.02
2023-01-31T09:54:30.726Z,1015.07
2023-01-31T09:55:30.722Z,1015.01
2023-01-31T09:56:30.668Z,1015.09
2023-01-31T09:57:35.932Z,1015.11
2023-01-31T09:58:30.835Z,1015.14
2023-01-31T09:59:30.766Z,1015.09
2023-01-31T10:00:30.607Z,1015.15
2023-01-31T10:01:30.625Z,1015.16
2023-01-31T10:02:30.637Z,1015.17
2023-01-31T10:03:30.687Z,1015.22
2023-01-31T10:04:30.607Z,1015.18
2023-01-31T10:05:30.683Z,1015.19
2023-01-31T10:06:30.636Z,1015.07
2023-01-31T10:07:30.537Z,1015.12
2023-01-31T10:08:35.164Z,1015.10
2023-01-31T10:09:30.715Z,1015.07
2023-01-31T10:10:30.345Z,1015.09
2023-01-31T10:11:30.683Z,1015.02
2023-01-31T10:12:30.422Z,1015.12
2023-01-31T10:13:30.387Z,1015.11
2023-01-31T10:14:30.462Z,1015.12
2023-01-31T10:15:30.491Z,1015.19
2023-01-31T10:16:30.458Z,1015.21
2023-01-31T10:17:30.353Z,1015.25
2023-01-31T10:18:30.482Z,1015.18
2023-01-31T10:19:35.032Z,1015.22
2023-01-31T10:20:30.433Z,1015.20
2023-01-31T10:21:30.332Z,1015.25
2023-01-31T10:22:30.313Z,1015.13
2023-01-31T10:23:30.317Z,1015.01
2023-01-31T10:24:30.353Z,1014.92
2023-01-31T10:25:30.275Z,1014.91
2023-01-31T10:26:30.398Z,1014.90
2023-01-31T10:27:30.454Z,1014.84
2023-01-31T10:28:30.371Z,1014.75
2023-01-31T10:29:30.685Z,1014.70
2023-01-31T10:30:34.925Z,1014.63
2023-01-31T10:31:30.268Z,1014.70
2023-01-31T10:32:30.293Z,1014.82
2023-01-31T10:33:30.449Z,1014.87
2023-01-31T10:34:30.370Z,1014.97
2023-01-31T10:35:30.114Z,1014.99
2023-01-31T10:36:30.395Z,1015.03
2023-01-31T10:37:30.183Z,1014.97
2023-01-31T10:38:30.213Z,1014.95
2023-01-31T10:39:30.268Z,1014.86
2023-01-31T10:40:30.124Z,1014.74
2023-01-31T10:41:34.795Z,1014.55
2023-01-31T10:42:30.120Z,1014.58
2023-01-31T10:43:30.122Z,1014.55
2023-01-31T10:44:30.019Z,1014.67
2023-01-31T10:45:30.688Z,1014.60
2023-01-31T10:46:30.366Z,1014.73
2023-01-31T10:47:29.677Z,1014.74
2023-01-31T10:48:29.705Z,1014.76
2023-01-31T10:49:29.687Z,1014.66
2023-01-31T10:50:29.699Z,1014.67
2023-01-31T10:51:29.650Z,1014.71
2023-01-31T10:52:34.675Z,1014.68
2023-01-31T10:53:29.618Z,1014.74
2023-01-31T10:54:29.617Z,1014.72
2023-01-31T10:55:29.638Z,1014.73
2023-01-31T10:56:29.584Z,1014.67
2023-01-31T10:57:29.634Z,1014.75
2023-01-31T10:58:29.568Z,1014.73
2023-01-31T10:59:29.615Z,1014.73
2023-01-31T11:00:29.550Z,1014.77
2023-01-31T11:01:29.546Z,1014.72
2023-01-31T11:02:29.603Z,1014.87
2023-01-31T11:03:34.525Z,1014.89
2023-01-31T11:04:29.504Z,1014.92
2023-01-31T11:05:29.492Z,1014.86
2023-01-31T11:06:29.523Z,1014.87
2023-01-31T11:07:29.457Z,1014.82
2023-01-31T11:08:29.460Z,1014.82
2023-01-31T11:09:29.488Z,1014.72
2023-01-31T11:10:29.435Z,1014.69
2023-01-31T11:11:29.457Z,1014.71
2023-01-31T11:12:29.406Z,1014.65
2023-01-31T11:13:29.411Z,1014.65
2023-01-31T11:14:34.424Z,1014.63
2023-01-31T11:15:29.635Z,1014.57
2023-01-31T11:16:29.399Z,1014.48
2023-01-31T11:17:29.352Z,1014.53
2023-01-31T11:18:29.335Z,1014.45
2023-01-31T11:19:29.332Z,1014.52
2023-01-31T11:20:29.317Z,1014.44
2023-01-31T11:21:29.306Z,1014.44
2023-01-31T11:22:29.332Z,1014.37
2023-01-31T11:23:29.283Z,1014.28
2023-01-31T11:24:30.924Z,1014.35
2023-01-31T11:25:34.295Z,1014.24
2023-01-31T11:26:29.310Z,1014.26
2023-01-31T11:27:29.249Z,1014.18
2023-01-31T11:28:29.219Z,1014.17
2023-01-31T11:29:29.221Z,1014.10
2023-01-31T11:30:29.298Z,1014.22
2023-01-31T11:31:29.242Z,1014.14
2023-01-31T11:32:29.186Z,1013.97
2023-01-31T11:33:29.198Z,1013.91
2023-01-31T11:34:29.199Z,1013.89
2023-01-31T11:35:29.162Z,1013.89
2023-01-31T11:36:34.166Z,1013.90
2023-01-31T11:37:29.129Z,1013.90
2023-01-31T11:38:29.153Z,1013.90
2023-01-31T11:39:29.116Z,1013.95
2023-01-31T11:40:29.124Z,1013.98
2023-01-31T11:41:29.082Z,1014.03
2023-01-31T11:42:29.063Z,1013.99
2023-01-31T11:43:29.056Z,1013.90
2023-01-31T11:44:29.043Z,1013.92
2023-01-31T11:45:29.048Z,1013.88
2023-01-31T11:46:29.122Z,1013.85
2023-01-31T11:47:34.041Z,1013.75
2023-01-31T11:48:29.036Z,1013.79
2023-01-31T11:49:28.996Z,1013.84
2023-01-31T11:50:28.987Z,1013.77
2023-01-31T11:51:28.958Z,1013.76
2023-01-31T11:52:28.961Z,1013.72
2023-01-31T11:53:28.963Z,1013.68
2023-01-31T11:54:28.963Z,1013.61
2023-01-31T11:55:28.938Z,1013.54
2023-01-31T11:56:28.920Z,1013.60
2023-01-31T11:57:28.899Z,1013.55
2023-01-31T11:58:33.916Z,1013.45
2023-01-31T11:59:28.883Z,1013.35
2023-01-31T12:00:28.887Z,1013.37
2023-01-31T12:01:28.859Z,1013.30
2023-01-31T12:02:28.907Z,1013.30
2023-01-31T12:03:28.886Z,1013.34
2023-01-31T12:04:28.822Z,1013.34
2023-01-31T12:05:28.816Z,1013.35
2023-01-31T12:06:28.865Z,1013.30
2023-01-31T12:07:28.784Z,1013.39
2023-01-31T12:08:29.940Z,1013.38
2023-01-31T12:09:33.819Z,1013.50
2023-01-31T12:10:28.831Z,1013.40
2023-01-31T12:11:28.809Z,1013.36
2023-01-31T12:12:28.736Z,1013.32
2023-01-31T12:13:28.719Z,1013.25
2023-01-31T12:14:28.720Z,1013.27
2023-01-31T12:15:28.697Z,1013.25
2023-01-31T12:16:28.754Z,1013.27
2023-01-31T12:17:28.673Z,1013.19
2023-01-31T12:18:28.918Z,1013.22
2023-01-31T12:19:28.647Z,1013.11
2023-01-31T12:20:33.695Z,1013.10
2023-01-31T12:21:28.631Z,1013.09
2023-01-31T12:22:28.619Z,1013.10
2023-01-31T12:23:28.609Z,1013.10
2023-01-31T12:24:28.614Z,1013.16
2023-01-31T12:25:28.619Z,1013.13
2023-01-31T12:26:28.710Z,1013.16
2023-01-31T12:27:28.562Z,1013.12
2023-01-31T12:28:28.554Z,1013.23
2023-01-31T12:29:28.540Z,1013.25
2023-01-31T12:30:28.563Z,1013.20
2023-01-31T12:31:33.606Z,1013.13
2023-01-31T12:32:28.520Z,1013.17
2023-01-31T12:33:28.495Z,1013.17
2023-01-31T12:34:28.483Z,1013.09
2023-01-31T12:35:28.468Z,1013.12
2023-01-31T12:36:28.477Z,1013.11
2023-01-31T12:37:28.460Z,1013.05
2023-01-31T12:38:28.436Z,1013.12
2023-01-31T12:39:28.425Z,1013.11
2023-01-31T12:40:30.575Z,1013.07
2023-01-31T12:41:28.452Z,1013.10
2023-01-31T12:42:33.418Z,1013.07
2023-01-31T12:43:28.400Z,1013.06
2023-01-31T12:44:28.461Z,1013.14
2023-01-31T12:45:28.361Z,1013.14
2023-01-31T12:46:28.503Z,1013.21
2023-01-31T12:47:28.339Z,1013.11
2023-01-31T12:48:28.344Z,1013.09
2023-01-31T12:49:28.341Z,1013.10
2023-01-31T12:50:28.310Z,1013.17
2023-01-31T12:51:28.371Z,1013.20
2023-01-31T12:52:28.290Z,1013.25
2023-01-31T12:53:33.320Z,1013.27
2023-01-31T12:54:28.259Z,1013.21
2023-01-31T12:55:28.243Z,1013.10
2023-01-31T12:56:28.263Z,1013.11
2023-01-31T12:57:28.255Z,1013.04
2023-01-31T12:58:28.230Z,1013.12
2023-01-31T12:59:28.206Z,1013.14
2023-01-31T13:00:28.201Z,1013.08
2023-01-31T13:01:28.291Z,1013.11
2023-01-31T13:02:28.206Z,1013.08
2023-01-31T13:03:28.163Z,1013.07
2023-01-31T13:04:33.221Z,1013.09
2023-01-31T13:05:28.651Z,1013.08
2023-01-31T13:06:28.119Z,1013.07
2023-01-31T13:07:28.118Z,1013.06
2023-01-31T13:08:28.101Z,1013.08
2023-01-31T13:09:28.137Z,1013.10
2023-01-31T13:10:28.087Z,1012.99
2023-01-31T13:11:28.090Z,1012.89
2023-01-31T13:12:28.081Z,1012.88
2023-01-31T13:13:28.085Z,1012.80
2023-01-31T13:14:28.040Z,1012.72
2023-01-31T13:15:33.039Z,1012.63
2023-01-31T13:16:28.009Z,1012.54
2023-01-31T13:17:28.010Z,1012.57
2023-01-31T13:18:27.996Z,1012.47
2023-01-31T13:19:27.993Z,1012.45
2023-01-31T13:20:27.976Z,1012.40
2023-01-31T13:21:27.973Z,1012.39
2023-01-31T13:22:27.957Z,1012.44
2023-01-31T13:23:27.928Z,1012.44
2023-01-31T13:24:27.945Z,1012.44
2023-01-31T13:25:27.913Z,1012.54
2023-01-31T13:26:32.984Z,1012.52
2023-01-31T13:27:27.914Z,1012.48
2023-01-31T13:28:27.881Z,1012.38
2023-01-31T13:29:27.885Z,1012.41
2023-01-31T13:30:27.849Z,1012.31
2023-01-31T13:31:27.927Z,1012.20
2023-01-31T13:32:27.858Z,1012.22
2023-01-31T13:33:27.836Z,1012.18
2023-01-31T13:34:27.810Z,1012.21
2023-01-31T13:35:27.811Z,1012.19
2023-01-31T13:36:27.783Z,1012.22
2023-01-31T13:37:32.815Z,1012.15
2023-01-31T13:38:27.785Z,1012.13
2023-01-31T13:39:27.749Z,1012.13
2023-01-31T13:40:27.920Z,1012.14
2023-01-31T13:41:27.723Z,1012.13
2023-01-31T13:42:27.718Z,1012.10
2023-01-31T13:43:27.722Z,1012.20
2023-01-31T13:44:27.706Z,1012.25
2023-01-31T13:45:27.706Z,1012.28
2023-01-31T13:46:27.730Z,1012.32
2023-01-31T13:47:27.660Z,1012.32
2023-01-31T13:48:32.684Z,1012.25
2023-01-31T13:49:27.687Z,1012.35
2023-01-31T13:50:27.629Z,1012.43
2023-01-31T13:51:27.628Z,1012.45
2023-01-31T13:52:27.602Z,1012.44
2023-01-31T13:53:27.636Z,1012.41
2023-01-31T13:54:27.587Z,1012.35
2023-01-31T13:55:27.572Z,1012.33
2023-01-31T13:56:27.574Z,1012.29
2023-01-31T13:57:27.544Z,1012.27
2023-01-31T13:58:27.549Z,1012.36
2023-01-31T13:59:32.553Z,1012.38
2023-01-31T14:00:27.523Z,1012.30
2023-01-31T14:01:27.597Z,1012.41
2023-01-31T14:02:27.513Z,1012.37
2023-01-31T14:03:27.549Z,1012.44
2023-01-31T14:04:27.491Z,1012.43
2023-01-31T14:05:27.473Z,1012.43
2023-01-31T14:06:27.445Z,1012.38
2023-01-31T14:07:27.440Z,1012.39
2023-01-31T14:08:27.612Z,1012.33
2023-01-31T14:09:27.423Z,1012.32
2023-01-31T14:10:32.428Z,1012.33
2023-01-31T14:11:27.392Z,1012.31
2023-01-31T14:12:27.377Z,1012.31
2023-01-31T14:13:27.389Z,1012.36
2023-01-31T14:14:27.393Z,1012.45
2023-01-31T14:15:27.342Z,1012.46
2023-01-31T14:16:27.361Z,1012.42
2023-01-31T14:17:27.369Z,1012.37
2023-01-31T14:18:27.355Z,1012.30
2023-01-31T14:19:27.311Z,1012.25
2023-01-31T14:20:27.300Z,1012.29
2023-01-31T14:21:32.331Z,1012.20
2023-01-31T14:22:27.285Z,1012.21
2023-01-31T14:23:27.290Z,1012.29
2023-01-31T14:24:27.248Z,1012.18
2023-01-31T14:25:27.350Z,1012.18
2023-01-31T14:26:27.258Z,1012.17
2023-01-31T14:27:27.241Z,1012.23
2023-01-31T14:28:27.268Z,1012.23
2023-01-31T14:29:27.188Z,1012.22
2023-01-31T14:30:27.179Z,1012.18
2023-01-31T14:31:27.219Z,1012.16
2023-01-31T14:32:32.200Z,1012.14
2023-01-31T14:33:27.144Z,1012.18
2023-01-31T14:34:27.142Z,1012.20
2023-01-31T14:35:27.116Z,1012.28
2023-01-31T14:36:27.106Z,1012.15
2023-01-31T14:37:27.096Z,1012.23
2023-01-31T14:38:27.093Z,1012.22
2023-01-31T14:39:27.095Z,1012.27
2023-01-31T14:40:27.081Z,1012.29
2023-01-31T14:41:27.063Z,1012.25
2023-01-31T14:42:27.041Z,1012.32
2023-01-31T14:43:32.053Z,1012.24
2023-01-31T14:44:29.249Z,1012.30
2023-01-31T14:45:27.080Z,1012.26
2023-01-31T14:46:27.000Z,1012.22
2023-01-31T14:47:26.995Z,1012.24
2023-01-31T14:48:26.994Z,1012.27
2023-01-31T14:49:26.974Z,1012.34
2023-01-31T14:50:26.969Z,1012.24
2023-01-31T14:51:26.975Z,1012.37
2023-01-31T14:52:26.926Z,1012.29
2023-01-31T14:53:26.915Z,1012.33
2023-01-31T14:54:31.933Z,1012.28
2023-01-31T14:55:26.893Z,1012.27
2023-01-31T14:56:26.974Z,1012.33
2023-01-31T14:57:26.903Z,1012.32
2023-01-31T14:58:26.857Z,1012.37
2023-01-31T14:59:26.866Z,1012.34
2023-01-31T15:00:26.908Z,1012.34
2023-01-31T15:01:26.983Z,1012.39
2023-01-31T15:02:26.939Z,1012.42
2023-01-31T15:03:26.874Z,1012.42
2023-01-31T15:04:26.835Z,1012.40
2023-01-31T15:05:31.801Z,1012.41
2023-01-31T15:06:26.775Z,1012.41
2023-01-31T15:07:26.756Z,1012.40
2023-01-31T15:08:26.760Z,1012.37
2023-01-31T15:09:26.758Z,1012.35
2023-01-31T15:10:26.796Z,1012.33
2023-01-31T15:11:41.075Z,1012.33
2023-01-31T15:12:27.705Z,1012.31
2023-01-31T15:13:26.697Z,1012.31
2023-01-31T15:14:34.142Z,1012.19
2023-01-31T15:15:27.676Z,1012.23
2023-01-31T15:16:31.750Z,1012.24
2023-01-31T15:17:36.401Z,1012.23
2023-01-31T15:18:27.649Z,1012.25
2023-01-31T15:19:26.649Z,1012.21
2023-01-31T15:20:26.640Z,1012.24
2023-01-31T15:21:26.603Z,1012.24
2023-01-31T15:22:26.600Z,1012.17
2023-01-31T15:23:26.587Z,1012.19
2023-01-31T15:24:26.591Z,1012.17
2023-01-31T15:25:26.581Z,1012.18
2023-01-31T15:26:26.565Z,1012.20
2023-01-31T15:27:31.558Z,1012.13
2023-01-31T15:28:26.517Z,1012.08
2023-01-31T15:29:26.515Z,1012.10
2023-01-31T15:30:26.582Z,1012.17
2023-01-31T15:31:26.516Z,1012.16
2023-01-31T15:32:26.488Z,1012.13
2023-01-31T15:33:26.466Z,1012.20
2023-01-31T15:34:26.460Z,1012.19
2023-01-31T15:35:26.469Z,1012.19
2023-01-31T15:36:27.484Z,1012.18
2023-01-31T15:37:26.420Z,1012.17
2023-01-31T15:38:31.429Z,1012.12
2023-01-31T15:39:26.397Z,1012.14
2023-01-31T15:40:26.394Z,1012.11
2023-01-31T15:41:26.388Z,1012.13
2023-01-31T15:42:26.385Z,1012.03
2023-01-31T15:43:26.356Z,1012.09
2023-01-31T15:44:26.339Z,1012.10
2023-01-31T15:45:26.348Z,1012.18
2023-01-31T15:46:26.314Z,1012.18
2023-01-31T15:47:26.311Z,1012.15
2023-01-31T15:48:26.469Z,1012.19
2023-01-31T15:49:40.052Z,1012.22
2023-01-31T15:50:27.281Z,1012.14
2023-01-31T15:51:26.268Z,1012.23
2023-01-31T15:52:26.284Z,1012.26
2023-01-31T15:53:26.238Z,1012.29
2023-01-31T15:54:26.259Z,1012.31
2023-01-31T15:55:26.232Z,1012.35
2023-01-31T15:56:26.201Z,1012.37
2023-01-31T15:57:26.276Z,1012.33
2023-01-31T15:58:26.185Z,1012.32
2023-01-31T15:59:26.173Z,1012.34
2023-01-31T16:00:31.203Z,1012.36
2023-01-31T16:01:26.213Z,1012.32
2023-01-31T16:02:26.213Z,1012.38
2023-01-31T16:03:26.141Z,1012.31
2023-01-31T16:04:26.118Z,1012.34
2023-01-31T16:05:26.113Z,1012.37
2023-01-31T16:06:26.095Z,1012.39
2023-01-31T16:07:26.080Z,1012.40
2023-01-31T16:08:26.097Z,1012.42
2023-01-31T16:09:26.067Z,1012.42
2023-01-31T16:10:26.066Z,1012.39
2023-01-31T16:11:33.428Z,1012.45
2023-01-31T16:12:26.022Z,1012.37
2023-01-31T16:13:26.015Z,1012.38
2023-01-31T16:14:25.997Z,1012.41
2023-01-31T16:15:25.991Z,1012.46
2023-01-31T16:16:25.999Z,1012.37
2023-01-31T16:17:25.987Z,1012.40
2023-01-31T16:18:25.955Z,1012.45
2023-01-31T16:19:26.032Z,1012.47
2023-01-31T16:20:25.931Z,1012.41
2023-01-31T16:21:25.931Z,1012.48
2023-01-31T16:22:30.957Z,1012.48
2023-01-31T16:23:25.918Z,1012.46
2023-01-31T16:24:25.920Z,1012.54
2023-01-31T16:25:25.895Z,1012.55
2023-01-31T16:26:25.923Z,1012.54
2023-01-31T16:27:25.853Z,1012.50
2023-01-31T16:28:25.861Z,1012.43
2023-01-31T16:29:25.843Z,1012.48
2023-01-31T16:30:25.824Z,1012.53
2023-01-31T16:31:25.915Z,1012.45
2023-01-31T16:32:25.813Z,1012.36
2023-01-31T16:33:30.809Z,1012.35
2023-01-31T16:34:25.774Z,1012.39
2023-01-31T16:35:25.820Z,1012.34
2023-01-31T16:36:25.762Z,1012.34
2023-01-31T16:37:25.747Z,1012.35
2023-01-31T16:38:25.728Z,1012.32
2023-01-31T16:39:25.717Z,1012.35
2023-01-31T16:40:25.738Z,1012.34
2023-01-31T16:41:26.032Z,1012.35
2023-01-31T16:42:25.682Z,1012.35
2023-01-31T16:43:25.675Z,1012.30
2023-01-31T16:44:30.724Z,1012.27
2023-01-31T16:45:25.664Z,1012.32
2023-01-31T16:46:25.688Z,1012.27
2023-01-31T16:47:25.632Z,1012.35
2023-01-31T16:48:25.635Z,1012.23
2023-01-31T16:49:25.670Z,1012.26
2023-01-31T16:50:41.939Z,1012.40
2023-01-31T16:51:26.607Z,1012.37
2023-01-31T16:52:25.583Z,1012.34
2023-01-31T16:53:25.569Z,1012.39
2023-01-31T16:54:25.595Z,1012.39
2023-01-31T16:55:30.583Z,1012.33
2023-01-31T16:56:25.543Z,1012.37
2023-01-31T16:57:25.517Z,1012.37
2023-01-31T16:58:25.506Z,1012.30
2023-01-31T16:59:25.496Z,1012.40
2023-01-31T17:00:25.501Z,1012.32
2023-01-31T17:01:25.558Z,1012.31
2023-01-31T17:02:25.515Z,1012.34
2023-01-31T17:03:25.450Z,1012.25
2023-01-31T17:04:25.465Z,1012.35
2023-01-31T17:05:25.428Z,1012.25